createdAt,value
2023-02-19T00:00:15.474Z,77.94
2023-02-19T00:02:46.718Z,77.89
2023-02-19T00:05:16.578Z,77.93
2023-02-19T00:07:44.947Z,78.32
2023-02-19T00:10:13.578Z,77.94
2023-02-19T00:12:42.323Z,77.81
2023-02-19T00:15:11.026Z,78.68
2023-02-19T00:17:42.086Z,78.12
2023-02-19T00:20:11.365Z,77.50
2023-02-19T00:22:41.137Z,77.93
2023-02-19T00:25:09.627Z,77.82
2023-02-19T00:27:37.994Z,78.25
2023-02-19T00:30:07.042Z,77.70
2023-02-19T00:32:35.815Z,77.55
2023-02-19T00:35:04.402Z,78.11
2023-02-19T00:37:32.889Z,77.52
2023-02-19T00:40:02.768Z,77.78
2023-02-19T00:42:38.370Z,77.58
2023-02-19T00:45:07.458Z,77.14
2023-02-19T00:47:36.098Z,77.31
2023-02-19T00:50:04.676Z,77.50
2023-02-19T00:52:33.129Z,77.14
2023-02-19T00:55:04.029Z,76.96
2023-02-19T00:57:32.668Z,77.25
2023-02-19T01:00:01.178Z,77.51
2023-02-19T01:02:34.522Z,77.15
2023-02-19T01:05:02.894Z,77.63
2023-02-19T01:07:34.549Z,77.92
2023-02-19T01:10:04.415Z,77.97
2023-02-19T01:12:33.097Z,78.02
2023-02-19T01:15:03.535Z,78.44
2023-02-19T01:17:37.045Z,77.40
2023-02-19T01:20:06.017Z,77.76
2023-02-19T01:22:34.492Z,78.01
2023-02-19T01:25:04.417Z,78.43
2023-02-19T01:27:32.850Z,78.07
2023-02-19T01:30:02.378Z,77.67
2023-02-19T01:32:32.359Z,78.38
2023-02-19T01:35:01.041Z,78.36
2023-02-19T01:37:29.440Z,78.45
2023-02-19T01:39:57.720Z,78.19
2023-02-19T01:42:27.449Z,78.47
2023-02-19T01:45:20.733Z,78.45
2023-02-19T01:47:51.330Z,78.22
2023-02-19T01:50:19.851Z,77.67
2023-02-19T01:52:48.872Z,76.94
2023-02-19T01:55:17.236Z,77.26
2023-02-19T01:57:49.253Z,77.74
2023-02-19T02:00:21.709Z,77.79
2023-02-19T02:02:53.082Z,77.68
2023-02-19T02:05:26.601Z,77.99
2023-02-19T02:08:12.845Z,77.59
2023-02-19T02:10:42.116Z,77.67
2023-02-19T02:13:14.760Z,77.94
2023-02-19T02:16:11.964Z,77.79
2023-02-19T02:18:49.777Z,77.69
2023-02-19T02:21:37.244Z,77.79
2023-02-19T02:24:26.457Z,78.12
2023-02-19T02:27:08.409Z,78.49
2023-02-19T02:30:06.327Z,78.72
2023-02-19T02:32:37.516Z,78.33
2023-02-19T02:35:10.149Z,79.05
2023-02-19T02:37:41.058Z,78.30
2023-02-19T02:40:11.940Z,78.80
2023-02-19T02:42:42.146Z,78.71
2023-02-19T02:45:37.781Z,78.79
2023-02-19T02:48:22.574Z,78.62
2023-02-19T02:50:53.879Z,79.05
2023-02-19T02:53:43.402Z,79.18
2023-02-19T02:56:12.807Z,79.53
2023-02-19T02:58:41.993Z,78.64
2023-02-19T03:01:32.401Z,78.97
2023-02-19T03:04:04.896Z,78.65
2023-02-19T03:06:36.032Z,78.69
2023-02-19T03:09:11.409Z,78.28
2023-02-19T03:12:02.586Z,78.36
2023-02-19T03:14:55.435Z,78.54
2023-02-19T03:17:46.075Z,78.92
2023-02-19T03:20:19.080Z,78.80
2023-02-19T03:22:48.434Z,78.87
2023-02-19T03:25:38.236Z,79.08
2023-02-19T03:28:09.602Z,79.28
2023-02-19T03:30:41.918Z,79.90
2023-02-19T03:33:15.406Z,80.61
2023-02-19T03:35:47.736Z,80.27
2023-02-19T03:38:19.673Z,79.85
2023-02-19T03:40:56.274Z,79.65
2023-02-19T03:43:28.788Z,79.68
2023-02-19T03:46:03.811Z,79.87
2023-02-19T03:48:36.061Z,79.97
2023-02-19T03:51:19.129Z,79.49
2023-02-19T03:53:54.946Z,79.89
2023-02-19T03:56:28.174Z,80.48
2023-02-19T03:59:00.536Z,80.39
2023-02-19T04:01:33.670Z,80.03
2023-02-19T04:04:07.568Z,79.69
2023-02-19T04:06:37.110Z,79.59
2023-02-19T04:09:08.167Z,80.37
2023-02-19T04:11:36.840Z,79.81
2023-02-19T04:14:11.924Z,79.51
2023-02-19T04:16:45.386Z,79.87
2023-02-19T04:19:17.296Z,79.65
2023-02-19T04:21:46.266Z,79.35
2023-02-19T04:24:20.427Z,79.93
2023-02-19T04:26:49.336Z,80.41
2023-02-19T04:29:17.713Z,80.85
2023-02-19T04:31:46.182Z,79.92
2023-02-19T04:34:17.329Z,80.59
2023-02-19T04:36:46.153Z,80.40
2023-02-19T04:39:14.579Z,80.19
2023-02-19T04:41:43.017Z,79.85
2023-02-19T04:44:11.328Z,80.22
2023-02-19T04:46:43.150Z,80.67
2023-02-19T04:49:11.924Z,80.55
2023-02-19T04:51:41.950Z,80.52
2023-02-19T04:54:10.603Z,80.33
2023-02-19T04:56:41.777Z,80.48
2023-02-19T04:59:10.270Z,80.77
2023-02-19T05:01:38.674Z,80.96
2023-02-19T05:04:07.179Z,81.62
2023-02-19T05:06:38.511Z,81.63
2023-02-19T05:09:08.339Z,82.05
2023-02-19T05:11:39.126Z,81.21
2023-02-19T05:14:09.968Z,81.15
2023-02-19T05:16:41.513Z,81.61
2023-02-19T05:19:12.813Z,81.58
2023-02-19T05:21:41.565Z,81.25
2023-02-19T05:24:11.361Z,81.13
2023-02-19T05:26:39.731Z,80.90
2023-02-19T05:29:08.245Z,80.04
2023-02-19T05:31:36.711Z,80.16
2023-02-19T05:34:05.198Z,80.19
2023-02-19T05:36:33.892Z,80.14
2023-02-19T05:39:02.338Z,79.65
2023-02-19T05:41:32.153Z,79.34
2023-02-19T05:44:02.898Z,79.41
2023-02-19T05:46:31.429Z,79.93
2023-02-19T05:48:59.890Z,79.69
2023-02-19T05:51:31.772Z,79.58
2023-02-19T05:54:00.125Z,79.30
2023-02-19T05:56:33.937Z,79.67
2023-02-19T05:59:04.885Z,78.90
2023-02-19T06:01:33.291Z,78.30
2023-02-19T06:04:01.949Z,78.06
2023-02-19T06:06:30.295Z,77.67
2023-02-19T06:08:58.744Z,77.78
2023-02-19T06:11:27.471Z,78.27
2023-02-19T06:13:58.533Z,77.36
2023-02-19T06:16:29.814Z,78.29
2023-02-19T06:18:58.300Z,77.94
2023-02-19T06:21:29.635Z,78.52
2023-02-19T06:23:58.795Z,78.06
2023-02-19T06:26:27.384Z,78.13
2023-02-19T06:28:57.141Z,78.27
2023-02-19T06:31:26.282Z,78.29
2023-02-19T06:33:55.259Z,77.77
2023-02-19T06:36:24.195Z,77.45
2023-02-19T06:38:52.897Z,77.72
2023-02-19T06:41:21.389Z,77.42
2023-02-19T06:43:49.871Z,77.68
2023-02-19T06:46:22.168Z,77.39
2023-02-19T06:48:50.605Z,77.23
2023-02-19T06:51:23.995Z,76.92
2023-02-19T06:53:52.395Z,76.32
2023-02-19T06:56:26.119Z,76.49
2023-02-19T06:58:54.804Z,75.71
2023-02-19T07:01:25.079Z,75.98
2023-02-19T07:03:53.754Z,75.87
2023-02-19T07:06:23.081Z,75.56
2023-02-19T07:08:52.216Z,75.67
2023-02-19T07:11:20.618Z,76.35
2023-02-19T07:13:48.990Z,76.42
2023-02-19T07:16:18.233Z,76.24
2023-02-19T07:18:51.972Z,76.27
2023-02-19T07:21:20.770Z,75.71
2023-02-19T07:23:49.106Z,76.01
2023-02-19T07:26:23.879Z,76.20
2023-02-19T07:28:53.149Z,76.77
2023-02-19T07:31:23.432Z,76.78
2023-02-19T07:33:53.673Z,76.60
2023-02-19T07:36:23.763Z,76.63
2023-02-19T07:38:56.145Z,77.35
2023-02-19T07:41:25.009Z,77.25
2023-02-19T07:43:53.521Z,77.00
2023-02-19T07:46:22.173Z,77.96
2023-02-19T07:48:50.567Z,78.32
2023-02-19T07:51:21.894Z,77.30
2023-02-19T07:53:51.550Z,77.07
2023-02-19T07:56:20.985Z,76.71
2023-02-19T07:58:49.635Z,76.24
2023-02-19T08:01:40.872Z,76.67
2023-02-19T08:04:12.442Z,76.30
2023-02-19T08:06:44.947Z,74.74
2023-02-19T08:09:14.974Z,75.98
2023-02-19T08:12:00.917Z,74.91
2023-02-19T08:14:29.328Z,75.18
2023-02-19T08:16:57.665Z,74.00
2023-02-19T08:19:26.214Z,74.40
2023-02-19T08:21:57.097Z,75.54
2023-02-19T08:24:25.494Z,74.93
2023-02-19T08:27:02.491Z,74.93
2023-02-19T08:29:31.027Z,74.41
2023-02-19T08:31:59.537Z,73.50
2023-02-19T08:34:28.005Z,74.14
2023-02-19T08:36:57.715Z,73.17
2023-02-19T08:39:26.238Z,72.83
2023-02-19T08:41:54.624Z,72.29
2023-02-19T08:44:23.078Z,72.46
2023-02-19T08:46:51.452Z,73.32
2023-02-19T08:49:19.827Z,72.24
2023-02-19T08:51:48.512Z,73.65
2023-02-19T08:54:18.599Z,73.39
2023-02-19T08:56:46.903Z,74.29
2023-02-19T08:59:15.482Z,74.19
2023-02-19T09:01:43.845Z,74.24
2023-02-19T09:04:13.826Z,74.16
2023-02-19T09:06:42.241Z,73.49
2023-02-19T09:09:10.721Z,73.19
2023-02-19T09:11:41.559Z,75.13
2023-02-19T09:14:10.415Z,74.23
2023-02-19T09:16:39.062Z,74.72
2023-02-19T09:19:07.398Z,73.56
2023-02-19T09:21:38.795Z,72.97
2023-02-19T09:24:07.615Z,73.81
2023-02-19T09:26:38.530Z,73.75
2023-02-19T09:29:08.593Z,74.98
2023-02-19T09:31:37.261Z,74.28
2023-02-19T09:34:07.347Z,73.01
2023-02-19T09:36:36.083Z,74.38
2023-02-19T09:39:06.814Z,74.71
2023-02-19T09:41:39.640Z,75.21
2023-02-19T09:44:11.907Z,74.40
2023-02-19T09:46:44.295Z,74.07
2023-02-19T09:49:15.794Z,74.26
2023-02-19T09:51:49.808Z,73.60
2023-02-19T09:54:22.967Z,73.21
2023-02-19T09:56:51.723Z,73.13
2023-02-19T09:59:24.086Z,72.12
2023-02-19T10:01:59.330Z,72.32
2023-02-19T10:04:30.815Z,72.45
2023-02-19T10:07:03.635Z,72.39
2023-02-19T10:09:32.677Z,71.96
2023-02-19T10:12:01.449Z,73.05
2023-02-19T10:14:35.096Z,73.36
2023-02-19T10:17:06.656Z,73.65
2023-02-19T10:19:35.514Z,72.94
2023-02-19T10:22:04.877Z,72.86
2023-02-19T10:24:33.417Z,72.33
2023-02-19T10:27:02.449Z,72.64
2023-02-19T10:29:32.337Z,72.60
2023-02-19T10:32:21.205Z,71.68
2023-02-19T10:34:50.058Z,71.19
2023-02-19T10:37:20.223Z,71.23
2023-02-19T10:39:50.015Z,70.67
2023-02-19T10:42:21.169Z,71.50
2023-02-19T10:44:55.748Z,70.98
2023-02-19T10:47:25.787Z,71.69
2023-02-19T10:49:54.887Z,71.12
2023-02-19T10:52:25.973Z,68.81
2023-02-19T10:54:59.871Z,70.94
2023-02-19T10:57:35.310Z,71.66
2023-02-19T11:00:23.008Z,71.41
2023-02-19T11:02:52.114Z,71.87
2023-02-19T11:05:21.412Z,71.22
2023-02-19T11:07:51.848Z,71.02
2023-02-19T11:10:28.764Z,68.63
2023-02-19T11:12:59.294Z,68.89
2023-02-19T11:15:32.244Z,67.18
2023-02-19T11:18:02.604Z,69.07
2023-02-19T11:20:32.241Z,68.83
2023-02-19T11:23:13.671Z,68.55
2023-02-19T11:25:46.685Z,70.75
2023-02-19T11:28:25.376Z,69.53
2023-02-19T11:30:57.436Z,71.78
2023-02-19T11:33:29.208Z,72.27
2023-02-19T11:36:28.735Z,72.68
2023-02-19T11:38:59.372Z,72.75
2023-02-19T11:41:51.710Z,73.06
2023-02-19T11:44:30.464Z,71.80
2023-02-19T11:47:10.144Z,71.82
2023-02-19T11:49:43.738Z,71.70
2023-02-19T11:52:21.357Z,71.99
2023-02-19T11:54:52.796Z,71.83
2023-02-19T11:57:42.669Z,71.09
2023-02-19T12:00:23.252Z,70.46
2023-02-19T12:03:22.736Z,70.50
2023-02-19T12:06:21.954Z,69.33
2023-02-19T12:09:01.810Z,69.72
2023-02-19T12:12:27.268Z,69.24
2023-02-19T12:15:14.687Z,69.27
2023-02-19T12:18:02.942Z,70.43
2023-02-19T12:20:36.795Z,70.74
2023-02-19T12:23:24.064Z,70.62
2023-02-19T12:25:58.960Z,70.61
2023-02-19T12:28:44.536Z,70.62
2023-02-19T12:31:35.404Z,71.34
2023-02-19T12:34:31.223Z,72.07
2023-02-19T12:37:12.052Z,72.13
2023-02-19T12:39:47.232Z,72.31
2023-02-19T12:42:39.856Z,72.36
2023-02-19T12:45:17.729Z,72.62
2023-02-19T12:47:55.863Z,72.97
2023-02-19T12:50:27.686Z,72.89
2023-02-19T12:53:01.449Z,73.68
2023-02-19T12:55:32.303Z,72.87
2023-02-19T12:58:04.315Z,72.57
2023-02-19T13:00:37.095Z,72.05
2023-02-19T13:03:10.956Z,72.30
2023-02-19T13:05:46.689Z,72.00
2023-02-19T13:18:49.553Z,73.88
2023-02-19T13:21:36.391Z,73.80
2023-02-19T13:24:09.815Z,74.58
2023-02-19T13:27:12.161Z,75.26
2023-02-19T13:30:03.860Z,75.52
2023-02-19T13:32:50.698Z,75.54
2023-02-19T13:35:44.156Z,76.12
2023-02-19T13:38:14.816Z,75.37
2023-02-19T13:40:44.502Z,76.09
2023-02-19T13:43:26.422Z,76.57
2023-02-19T13:45:57.812Z,76.45
2023-02-19T13:48:28.958Z,76.34
2023-02-19T14:54:45.347Z,80.67
2023-02-19T14:57:19.782Z,81.34
2023-02-19T14:59:58.430Z,81.08
2023-02-19T15:08:38.702Z,79.96
2023-02-19T15:11:20.858Z,79.67
2023-02-19T15:13:51.182Z,79.78
2023-02-19T15:16:20.522Z,79.83
2023-02-19T15:30:12.103Z,80.02
2023-02-19T15:32:43.974Z,80.53
2023-02-19T15:35:24.095Z,80.73
2023-02-19T15:43:00.346Z,80.67
2023-02-19T15:50:25.663Z,80.73
2023-02-19T15:52:59.605Z,80.61
2023-02-19T16:16:21.292Z,80.04
2023-02-19T16:18:53.542Z,79.72
2023-02-19T16:21:25.925Z,80.01
2023-02-19T16:57:51.432Z,81.11
2023-02-19T17:00:38.735Z,81.07
2023-02-19T17:03:44.680Z,80.60
2023-02-19T17:06:33.134Z,81.43
2023-02-19T17:09:21.217Z,81.42
2023-02-19T17:12:14.529Z,81.14
2023-02-19T17:15:03.270Z,81.21
2023-02-19T17:17:50.561Z,82.24
2023-02-19T17:20:37.820Z,81.93
2023-02-19T17:23:25.038Z,81.73
2023-02-19T17:26:15.503Z,81.93
2023-02-19T17:29:04.539Z,81.63
2023-02-19T17:31:52.963Z,81.43
2023-02-19T17:34:39.956Z,82.28
2023-02-19T17:37:29.333Z,81.79
2023-02-19T17:40:32.365Z,81.83
2023-02-19T17:43:20.353Z,82.10
2023-02-19T17:46:07.528Z,82.01
2023-02-19T17:48:56.085Z,81.99
2023-02-19T17:51:46.032Z,81.78
2023-02-19T17:54:33.273Z,81.77
2023-02-19T17:57:20.465Z,81.66
2023-02-19T18:00:09.634Z,81.62
2023-02-19T18:02:57.080Z,81.08
2023-02-19T18:05:45.799Z,81.95
2023-02-19T18:08:32.943Z,81.75
2023-02-19T18:11:21.177Z,81.48
2023-02-19T18:14:10.448Z,81.62
2023-02-19T18:16:57.476Z,82.11
2023-02-19T18:19:45.369Z,81.55
2023-02-19T18:22:33.880Z,81.85
2023-02-19T18:25:22.858Z,81.67
2023-02-19T18:28:09.990Z,81.27
2023-02-19T18:30:56.932Z,81.35
2023-02-19T18:33:44.299Z,81.07
2023-02-19T18:36:31.714Z,81.84
2023-02-19T18:39:20.311Z,81.50
2023-02-19T18:42:09.410Z,81.94
2023-02-19T18:44:56.736Z,81.12
2023-02-19T18:47:44.230Z,81.65
2023-02-19T18:50:33.520Z,82.75
2023-02-19T18:57:40.709Z,82.41
2023-02-19T19:00:30.067Z,81.83
2023-02-19T19:03:17.231Z,81.53
2023-02-19T19:06:04.005Z,81.95
2023-02-19T19:08:50.881Z,82.42
2023-02-19T19:11:38.673Z,82.24
2023-02-19T19:14:27.455Z,81.90
2023-02-19T19:17:14.665Z,82.58
2023-02-19T19:20:01.688Z,83.39
2023-02-19T19:22:50.633Z,82.96
2023-02-19T19:25:38.023Z,82.86
2023-02-19T19:28:25.375Z,82.66
2023-02-19T19:31:14.892Z,82.67
2023-02-19T19:34:02.659Z,82.65
2023-02-19T19:36:49.691Z,82.81
2023-02-19T19:39:36.577Z,83.19
2023-02-19T19:42:23.753Z,83.37
2023-02-19T19:44:52.909Z,83.30
2023-02-19T19:47:41.451Z,83.34
2023-02-19T19:50:29.005Z,83.29
2023-02-19T19:57:09.502Z,82.84
2023-02-19T19:59:56.518Z,82.55
2023-02-19T20:02:46.762Z,82.77
2023-02-19T20:05:33.770Z,83.34
2023-02-19T20:08:58.229Z,83.17
2023-02-19T20:11:46.874Z,83.25
2023-02-19T20:14:34.853Z,83.00
2023-02-19T20:17:22.004Z,83.22
2023-02-19T20:20:11.763Z,82.83
2023-02-19T20:26:54.891Z,82.59
2023-02-19T20:30:34.172Z,82.35
2023-02-19T20:33:21.375Z,82.54
2023-02-19T20:36:29.745Z,82.30
2023-02-19T20:39:18.974Z,82.06
2023-02-19T20:42:06.854Z,81.64
2023-02-19T20:44:53.727Z,81.93
2023-02-19T20:47:41.202Z,81.64
2023-02-19T20:50:28.434Z,81.64
2023-02-19T20:53:16.589Z,82.13
2023-02-19T20:56:07.102Z,82.16
2023-02-19T20:58:54.389Z,82.49
2023-02-19T21:01:41.426Z,83.06
2023-02-19T21:04:28.575Z,82.70
2023-02-19T21:07:15.917Z,82.72
2023-02-19T21:10:04.537Z,81.79
2023-02-19T21:12:52.497Z,81.49
2023-02-19T21:15:42.221Z,81.61
2023-02-19T21:18:29.014Z,81.52
2023-02-19T21:21:21.348Z,81.53
2023-02-19T21:24:08.537Z,81.65
2023-02-19T21:26:56.762Z,81.99
2023-02-19T21:29:43.899Z,82.11
2023-02-19T21:32:32.264Z,81.68
2023-02-19T21:35:22.585Z,82.40
2023-02-19T21:38:09.565Z,81.77
2023-02-19T21:40:56.583Z,81.91
2023-02-19T21:43:44.968Z,82.18
2023-02-19T21:46:33.219Z,82.12
2023-02-19T21:49:20.353Z,82.42
2023-02-19T21:52:09.775Z,81.83
2023-02-19T21:54:56.582Z,82.08
2023-02-19T21:57:45.112Z,82.48
2023-02-19T22:00:33.785Z,82.82
2023-02-19T22:03:20.587Z,83.30
2023-02-19T22:06:08.203Z,83.25
2023-02-19T22:08:55.505Z,83.12
2023-02-19T22:11:43.393Z,82.74
2023-02-19T22:14:33.056Z,82.86
2023-02-19T22:17:21.977Z,83.48
2023-02-19T22:20:09.643Z,83.52
2023-02-19T22:22:56.439Z,83.42
2023-02-19T22:25:43.608Z,83.64
2023-02-19T22:28:30.707Z,82.88
2023-02-19T22:31:18.378Z,83.21
2023-02-19T22:34:08.017Z,82.92
2023-02-19T22:36:55.271Z,82.73
2023-02-19T22:39:42.267Z,82.87
2023-02-19T22:42:29.560Z,82.52
2023-02-19T22:45:16.651Z,82.69
2023-02-19T22:48:03.922Z,82.53
2023-02-19T22:50:52.781Z,82.23
2023-02-19T22:53:39.826Z,81.82
2023-02-19T22:56:29.148Z,82.26
2023-02-19T22:59:16.370Z,82.40
2023-02-19T23:02:03.668Z,82.39
2023-02-19T23:04:50.728Z,82.35
2023-02-19T23:07:56.393Z,82.80
2023-02-19T23:10:43.600Z,81.62
2023-02-19T23:13:30.600Z,81.29
2023-02-19T23:16:17.821Z,82.16
2023-02-19T23:19:05.980Z,82.57
2023-02-19T23:21:53.015Z,82.60
2023-02-19T23:24:42.684Z,82.43
2023-02-19T23:27:30.699Z,82.83
2023-02-19T23:33:24.052Z,82.78
2023-02-19T23:36:29.053Z,82.85
2023-02-19T23:39:21.389Z,82.89
2023-02-19T23:42:15.773Z,82.62
2023-02-19T23:44:48.053Z,82.38
2023-02-19T23:47:35.195Z,82.67
2023-02-19T23:50:22.552Z,82.69
2023-02-19T23:53:09.588Z,82.80
2023-02-19T23:55:56.685Z,83.29
2023-02-19T23:58:45.035Z,83.03
